Time;durP1;ratioP1;P1;durP2;ratioP2;P2;SDS_P1;SDS_P2;PMS_P1;PMS_P2;Temp;Humidity;BMP_temperature;BMP_pressure;BME280_temperature;BME280_humidity;BME280_pressure;Samples;Min_cycle;Max_cycle;Signal;HPM_P1;HPM_P2
2022/03/06 00:01:30;;;;;;;9.93;8.93;;;;;;;;;;5053567;28;20613;-61
2022/03/06 00:03:56;;;;;;;9.97;8.77;;;;;;;;;;5052722;28;20515;-60
2022/03/06 00:06:22;;;;;;;9.77;8.73;;;;;;;;;;5053307;28;20490;-60
2022/03/06 00:08:49;;;;;;;9.97;8.27;;;;;;;;;;5053314;28;20283;-60
2022/03/06 00:11:15;;;;;;;10.17;8.93;;;;;;;;;;5053091;28;20994;-60
2022/03/06 00:13:41;;;;;;;9.67;8.47;;;;;;;;;;5053098;28;20439;-60
2022/03/06 00:16:07;;;;;;;9.87;8.37;;;;;;;;;;5053135;28;20207;-60
2022/03/06 00:18:36;;;;;;;9.87;8.37;;;;;;;;;;5052897;28;20567;-60
2022/03/06 00:21:03;;;;;;;10.70;8.27;;;;;;;;;;5053015;28;20508;-60
2022/03/06 00:23:29;;;;;;;7.90;7.20;;;;;;;;;;5053238;28;20474;-60
2022/03/06 00:25:56;;;;;;;8.83;7.93;;;;;;;;;;5052416;28;20840;-59
2022/03/06 00:28:22;;;;;;;15.13;9.47;;;;;;;;;;5051247;28;20450;-59
2022/03/06 00:30:48;;;;;;;14.20;9.50;;;;;;;;;;5052685;28;20446;-61
2022/03/06 00:33:14;;;;;;;8.63;7.73;;;;;;;;;;5052516;28;20817;-59
2022/03/06 00:35:40;;;;;;;8.90;7.63;;;;;;;;;;5052824;28;20485;-59
2022/03/06 00:38:07;;;;;;;8.70;7.77;;;;;;;;;;5052031;28;20438;-60
2022/03/06 00:40:33;;;;;;;8.80;7.77;;;;;;;;;;5052803;28;20269;-59
2022/03/06 00:43:00;;;;;;;7.93;7.13;;;;;;;;;;5050836;28;20925;-57
2022/03/06 00:45:26;;;;;;;8.10;7.30;;;;;;;;;;5052390;28;20481;-57
2022/03/06 00:47:52;;;;;;;9.00;7.47;;;;;;;;;;5052480;28;20423;-58
2022/03/06 00:50:18;;;;;;;9.00;7.10;;;;;;;;;;5052031;28;21027;-58
2022/03/06 00:52:44;;;;;;;8.97;7.00;;;;;;;;;;5052567;28;20203;-58
2022/03/06 00:55:10;;;;;;;7.33;6.60;;;;;;;;;;5052159;28;20717;-58
2022/03/06 00:57:36;;;;;;;7.43;6.63;;;;;;;;;;5052357;28;20287;-58
2022/03/06 01:00:04;;;;;;;7.00;6.30;;;;;;;;;;5052093;28;20435;-58
2022/03/06 01:02:30;;;;;;;9.03;6.33;;;;;;;;;;5052438;28;20447;-57
2022/03/06 01:04:56;;;;;;;6.33;5.73;;;;;;;;;;5052030;28;20474;-57
2022/03/06 01:07:22;;;;;;;7.70;6.90;;;;;;;;;;5051909;28;20284;-57
2022/03/06 01:09:48;;;;;;;7.90;6.40;;;;;;;;;;5048402;28;20204;-58
2022/03/06 01:12:14;;;;;;;6.67;5.93;;;;;;;;;;5049246;28;20521;-58
2022/03/06 01:14:40;;;;;;;8.43;5.90;;;;;;;;;;5051599;28;20188;-58
2022/03/06 01:17:08;;;;;;;7.13;5.80;;;;;;;;;;5051883;28;20433;-59
2022/03/06 01:19:33;;;;;;;7.10;5.57;;;;;;;;;;5051692;28;20215;-58
2022/03/06 01:21:59;;;;;;;7.30;6.30;;;;;;;;;;5051997;28;20422;-58
2022/03/06 01:24:26;;;;;;;6.90;5.60;;;;;;;;;;5051353;28;20243;-58
2022/03/06 01:26:52;;;;;;;7.23;5.73;;;;;;;;;;5051688;28;20286;-57
2022/03/06 01:29:18;;;;;;;6.77;5.93;;;;;;;;;;5051761;28;20443;-59
2022/03/06 01:31:45;;;;;;;7.03;5.20;;;;;;;;;;5051957;28;20270;-58
2022/03/06 01:34:12;;;;;;;7.30;5.77;;;;;;;;;;5051658;28;20466;-58
2022/03/06 01:36:38;;;;;;;6.30;5.40;;;;;;;;;;5050067;28;20807;-58
2022/03/06 01:39:04;;;;;;;6.20;5.60;;;;;;;;;;5051644;28;20426;-58
2022/03/06 01:41:33;;;;;;;7.33;6.20;;;;;;;;;;5051623;28;20665;-58
2022/03/06 01:43:59;;;;;;;5.73;5.23;;;;;;;;;;5051816;28;20450;-58
2022/03/06 01:46:25;;;;;;;7.17;5.37;;;;;;;;;;5051468;28;20482;-59
2022/03/06 01:48:51;;;;;;;7.17;5.77;;;;;;;;;;5051547;28;20202;-60
2022/03/06 01:51:18;;;;;;;6.60;5.90;;;;;;;;;;5051336;28;20261;-59
2022/03/06 01:53:44;;;;;;;7.13;5.23;;;;;;;;;;5051564;28;20291;-59
2022/03/06 01:56:12;;;;;;;7.63;5.93;;;;;;;;;;5051401;28;20455;-58
2022/03/06 01:58:38;;;;;;;8.47;5.53;;;;;;;;;;5051401;28;20991;-57
2022/03/06 02:01:04;;;;;;;6.83;5.60;;;;;;;;;;5051340;28;20439;-58
2022/03/06 02:03:30;;;;;;;6.50;5.70;;;;;;;;;;5051451;28;20451;-58
2022/03/06 02:05:56;;;;;;;6.77;5.43;;;;;;;;;;5051294;28;20473;-59
2022/03/06 02:08:23;;;;;;;7.57;5.00;;;;;;;;;;5051262;28;20200;-58
2022/03/06 02:10:51;;;;;;;8.47;5.57;;;;;;;;;;5051384;28;20204;-58
2022/03/06 02:13:17;;;;;;;6.43;5.03;;;;;;;;;;5051384;28;20430;-58
2022/03/06 02:15:44;;;;;;;5.40;4.90;;;;;;;;;;5051416;28;20434;-58
2022/03/06 02:18:10;;;;;;;7.83;5.27;;;;;;;;;;5051192;28;20488;-58
2022/03/06 02:20:37;;;;;;;5.63;4.90;;;;;;;;;;5051294;28;20447;-59
2022/03/06 02:23:04;;;;;;;6.70;4.77;;;;;;;;;;5051181;28;20458;-59
2022/03/06 02:25:31;;;;;;;5.60;5.00;;;;;;;;;;5051108;28;20490;-58
2022/03/06 02:27:58;;;;;;;6.17;5.40;;;;;;;;;;5051266;28;20446;-60
2022/03/06 02:30:26;;;;;;;5.63;4.60;;;;;;;;;;5051132;28;20469;-63
2022/03/06 02:32:52;;;;;;;5.97;4.80;;;;;;;;;;5051077;28;20441;-59
2022/03/06 02:35:19;;;;;;;5.30;4.77;;;;;;;;;;5050972;28;20454;-58
2022/03/06 02:37:46;;;;;;;6.27;5.07;;;;;;;;;;5051160;28;20438;-58
2022/03/06 02:40:14;;;;;;;6.67;5.30;;;;;;;;;;5050956;28;20470;-58
2022/03/06 02:42:41;;;;;;;6.43;5.03;;;;;;;;;;5050915;28;20449;-58
2022/03/06 02:45:09;;;;;;;5.50;4.90;;;;;;;;;;5050808;28;20886;-58
2022/03/06 02:47:35;;;;;;;6.30;5.07;;;;;;;;;;5050179;28;20518;-59
2022/03/06 02:50:02;;;;;;;7.90;5.23;;;;;;;;;;5050953;28;20438;-58
2022/03/06 02:52:28;;;;;;;6.03;5.03;;;;;;;;;;5051128;28;20438;-58
2022/03/06 02:54:54;;;;;;;6.03;4.47;;;;;;;;;;5050783;28;20445;-57
2022/03/06 02:57:21;;;;;;;7.60;4.93;;;;;;;;;;5050544;28;20438;-58
2022/03/06 02:59:47;;;;;;;6.80;4.60;;;;;;;;;;5050871;28;20647;-59
2022/03/06 03:02:13;;;;;;;7.13;5.30;;;;;;;;;;5054313;28;20488;-59
2022/03/06 03:04:39;;;;;;;5.17;4.67;;;;;;;;;;5054422;28;20255;-57
2022/03/06 03:07:07;;;;;;;5.67;4.50;;;;;;;;;;5054353;28;20506;-57
2022/03/06 03:09:33;;;;;;;5.07;4.47;;;;;;;;;;5054435;28;20442;-59
2022/03/06 03:12:00;;;;;;;5.10;4.50;;;;;;;;;;5054470;28;20435;-58
2022/03/06 03:14:31;;;;;;;30.07;21.83;;;;;;;;;;5054297;28;20516;-57
2022/03/06 03:16:57;;;;;;;11.57;8.77;;;;;;;;;;5054468;28;20434;-60
2022/03/06 03:19:23;;;;;;;5.53;4.80;;;;;;;;;;5054020;28;20812;-59
2022/03/06 03:21:49;;;;;;;6.73;4.53;;;;;;;;;;5053612;28;20283;-59
2022/03/06 03:24:15;;;;;;;4.67;3.80;;;;;;;;;;5054119;28;20215;-58
2022/03/06 03:26:41;;;;;;;5.13;3.87;;;;;;;;;;5054015;28;20673;-59
2022/03/06 03:29:07;;;;;;;5.20;4.17;;;;;;;;;;5054082;28;20204;-59
2022/03/06 03:31:34;;;;;;;6.47;4.13;;;;;;;;;;5054108;28;20218;-59
2022/03/06 03:34:01;;;;;;;4.67;4.17;;;;;;;;;;5054083;28;20431;-60
2022/03/06 03:36:27;;;;;;;7.33;4.67;;;;;;;;;;5053691;28;20446;-58
2022/03/06 03:38:53;;;;;;;5.70;3.80;;;;;;;;;;5053896;28;20597;-58
2022/03/06 03:41:19;;;;;;;5.00;3.77;;;;;;;;;;5053605;28;21052;-58
2022/03/06 03:43:45;;;;;;;5.93;4.20;;;;;;;;;;5053767;28;20439;-58
2022/03/06 03:46:11;;;;;;;4.20;3.80;;;;;;;;;;5053466;28;20258;-57
2022/03/06 03:48:38;;;;;;;6.03;4.30;;;;;;;;;;5053714;28;20443;-58
2022/03/06 03:51:04;;;;;;;4.43;3.93;;;;;;;;;;5053584;28;20951;-58
2022/03/06 03:53:30;;;;;;;5.40;4.23;;;;;;;;;;5053640;28;20920;-58
2022/03/06 03:55:56;;;;;;;6.77;4.30;;;;;;;;;;5053604;28;20431;-58
2022/03/06 03:58:22;;;;;;;6.67;4.50;;;;;;;;;;5053578;28;20207;-57
2022/03/06 04:00:54;;;;;;;4.80;4.00;;;;;;;;;;5053789;28;20200;-58
2022/03/06 04:03:20;;;;;;;4.00;3.40;;;;;;;;;;5053429;28;20783;-59
2022/03/06 04:05:47;;;;;;;4.53;4.07;;;;;;;;;;5053555;28;20956;-58
2022/03/06 04:08:13;;;;;;;4.67;3.80;;;;;;;;;;5053318;28;20547;-58
2022/03/06 04:10:39;;;;;;;5.70;4.30;;;;;;;;;;5053344;28;20451;-58
2022/03/06 04:13:05;;;;;;;4.23;3.83;;;;;;;;;;5052196;28;20431;-58
2022/03/06 04:15:31;;;;;;;5.60;4.27;;;;;;;;;;5053295;28;20192;-58
2022/03/06 04:17:57;;;;;;;5.67;3.60;;;;;;;;;;5053187;28;20545;-57
2022/03/06 04:20:24;;;;;;;5.63;4.03;;;;;;;;;;5053144;28;20538;-58
2022/03/06 04:22:51;;;;;;;5.50;4.00;;;;;;;;;;5052970;28;20438;-59
2022/03/06 04:25:18;;;;;;;4.57;3.53;;;;;;;;;;5052910;28;20561;-59
2022/03/06 04:27:44;;;;;;;5.43;3.90;;;;;;;;;;5052896;28;20943;-58
2022/03/06 04:30:10;;;;;;;5.40;4.20;;;;;;;;;;5052810;28;20564;-58
2022/03/06 04:32:37;;;;;;;5.70;4.07;;;;;;;;;;5053029;28;20444;-59
2022/03/06 04:35:03;;;;;;;5.57;4.10;;;;;;;;;;5052762;28;20431;-58
2022/03/06 04:37:29;;;;;;;4.70;3.60;;;;;;;;;;5052952;28;20537;-59
2022/03/06 04:39:57;;;;;;;4.47;3.70;;;;;;;;;;5052742;28;20506;-59
2022/03/06 04:42:23;;;;;;;3.90;3.27;;;;;;;;;;5052593;28;20196;-59
2022/03/06 04:44:49;;;;;;;4.40;3.70;;;;;;;;;;5052189;28;20470;-58
2022/03/06 04:47:15;;;;;;;4.63;3.97;;;;;;;;;;5052181;28;20470;-58
2022/03/06 04:49:41;;;;;;;6.13;4.03;;;;;;;;;;5052519;28;20445;-59
2022/03/06 04:52:07;;;;;;;4.60;3.50;;;;;;;;;;5052382;28;20443;-59
2022/03/06 04:54:33;;;;;;;4.57;3.97;;;;;;;;;;5052255;28;20441;-59
2022/03/06 04:57:01;;;;;;;5.33;4.00;;;;;;;;;;5052278;28;20442;-59
2022/03/06 04:59:27;;;;;;;4.57;3.80;;;;;;;;;;5052342;28;20486;-59
2022/03/06 05:01:53;;;;;;;4.83;3.53;;;;;;;;;;5052264;28;20512;-58
2022/03/06 05:04:19;;;;;;;5.23;3.67;;;;;;;;;;5052159;28;20696;-58
2022/03/06 05:06:45;;;;;;;4.73;3.43;;;;;;;;;;5052308;28;20573;-58
2022/03/06 05:09:11;;;;;;;4.03;3.63;;;;;;;;;;5051934;28;20538;-58
2022/03/06 05:11:37;;;;;;;4.33;3.47;;;;;;;;;;5052169;28;20193;-57
2022/03/06 05:14:05;;;;;;;4.43;3.73;;;;;;;;;;5051932;28;20878;-58
2022/03/06 05:16:31;;;;;;;5.23;3.80;;;;;;;;;;5052224;28;20532;-58
2022/03/06 05:18:57;;;;;;;5.20;3.53;;;;;;;;;;5051831;28;20442;-60
2022/03/06 05:21:23;;;;;;;5.17;3.80;;;;;;;;;;5051698;28;20443;-58
2022/03/06 05:23:49;;;;;;;4.40;3.53;;;;;;;;;;5051683;28;20454;-58
2022/03/06 05:26:15;;;;;;;4.63;3.80;;;;;;;;;;5051665;28;20486;-58
2022/03/06 05:28:41;;;;;;;4.50;3.60;;;;;;;;;;5051643;28;21035;-58
2022/03/06 05:31:09;;;;;;;4.50;3.60;;;;;;;;;;5051671;28;20534;-58
2022/03/06 05:33:35;;;;;;;6.10;4.10;;;;;;;;;;5051773;28;20525;-60
2022/03/06 05:36:01;;;;;;;4.40;3.83;;;;;;;;;;5051670;28;20431;-57
2022/03/06 05:38:27;;;;;;;6.23;3.43;;;;;;;;;;5051547;28;20431;-57
2022/03/06 05:40:53;;;;;;;4.87;3.70;;;;;;;;;;5051604;28;20363;-56
2022/03/06 05:43:19;;;;;;;4.87;4.00;;;;;;;;;;5051622;28;20443;-57
2022/03/06 05:45:50;;;;;;;4.50;3.40;;;;;;;;;;5051683;28;20346;-58
2022/03/06 05:48:17;;;;;;;6.73;3.70;;;;;;;;;;5051634;28;20948;-59
2022/03/06 05:50:43;;;;;;;7.20;4.40;;;;;;;;;;5051751;28;20455;-59
2022/03/06 05:53:09;;;;;;;4.30;3.90;;;;;;;;;;5051537;28;20514;-60
2022/03/06 05:55:35;;;;;;;4.60;4.00;;;;;;;;;;5051471;28;20224;-59
2022/03/06 05:58:01;;;;;;;6.23;4.20;;;;;;;;;;5051408;28;20441;-59
2022/03/06 06:00:28;;;;;;;4.30;3.77;;;;;;;;;;5051533;28;20481;-60
2022/03/06 06:02:55;;;;;;;5.33;3.60;;;;;;;;;;5051477;28;20439;-59
2022/03/06 06:05:23;;;;;;;6.83;3.70;;;;;;;;;;5051284;28;20562;-58
2022/03/06 06:07:49;;;;;;;4.23;3.70;;;;;;;;;;5051365;28;20514;-58
2022/03/06 06:10:15;;;;;;;4.83;3.50;;;;;;;;;;5051352;28;20458;-58
2022/03/06 06:12:41;;;;;;;5.03;3.20;;;;;;;;;;5051478;28;20455;-59
2022/03/06 06:15:08;;;;;;;5.67;3.63;;;;;;;;;;5051245;28;20441;-59
2022/03/06 06:17:34;;;;;;;4.43;3.80;;;;;;;;;;5051362;28;20537;-59
2022/03/06 06:20:00;;;;;;;3.93;3.30;;;;;;;;;;5051354;28;20868;-59
2022/03/06 06:22:28;;;;;;;4.93;3.80;;;;;;;;;;5051164;28;20192;-57
2022/03/06 06:24:54;;;;;;;5.03;3.80;;;;;;;;;;5051084;28;20885;-57
2022/03/06 06:27:20;;;;;;;4.37;3.23;;;;;;;;;;5050935;28;21042;-58
2022/03/06 06:29:46;;;;;;;4.20;3.80;;;;;;;;;;5051275;28;20201;-57
2022/03/06 06:32:13;;;;;;;5.63;3.63;;;;;;;;;;5051182;28;20497;-58
2022/03/06 06:34:39;;;;;;;6.07;4.03;;;;;;;;;;5051299;28;20279;-57
2022/03/06 06:37:05;;;;;;;5.27;4.10;;;;;;;;;;5054591;28;20427;-58
2022/03/06 06:39:32;;;;;;;4.70;3.43;;;;;;;;;;5054949;28;20438;-58
2022/03/06 06:42:03;;;;;;;4.07;3.50;;;;;;;;;;5055101;28;20439;-58
2022/03/06 06:44:29;;;;;;;4.23;3.70;;;;;;;;;;5054965;28;20995;-59
2022/03/06 06:46:55;;;;;;;4.10;3.67;;;;;;;;;;5054696;28;20490;-59
2022/03/06 06:49:21;;;;;;;4.33;3.80;;;;;;;;;;5054585;28;20458;-58
2022/03/06 06:51:47;;;;;;;7.03;3.97;;;;;;;;;;5054866;28;20203;-58
2022/03/06 06:54:13;;;;;;;4.63;3.73;;;;;;;;;;5054622;28;20440;-58
2022/03/06 06:56:40;;;;;;;6.97;3.70;;;;;;;;;;5054621;28;20435;-58
2022/03/06 06:59:07;;;;;;;4.30;3.70;;;;;;;;;;5054468;28;20450;-58
2022/03/06 07:01:33;;;;;;;5.03;3.90;;;;;;;;;;5054609;28;20442;-58
2022/03/06 07:03:59;;;;;;;7.97;3.70;;;;;;;;;;5054376;28;20811;-58
2022/03/06 07:06:25;;;;;;;4.60;3.73;;;;;;;;;;5054058;28;20686;-58
2022/03/06 07:08:51;;;;;;;5.03;4.10;;;;;;;;;;5054273;28;20558;-59
2022/03/06 07:11:17;;;;;;;5.03;4.10;;;;;;;;;;5054392;28;20530;-59
2022/03/06 07:13:44;;;;;;;5.13;3.80;;;;;;;;;;5054412;28;20743;-59
2022/03/06 07:16:10;;;;;;;6.27;4.10;;;;;;;;;;5054264;28;20211;-59
2022/03/06 07:18:36;;;;;;;4.33;3.60;;;;;;;;;;5054189;28;20439;-58
2022/03/06 07:21:02;;;;;;;5.37;4.17;;;;;;;;;;5054160;28;20445;-59
2022/03/06 07:23:28;;;;;;;4.10;3.70;;;;;;;;;;5053978;28;20960;-57
2022/03/06 07:25:54;;;;;;;5.23;3.63;;;;;;;;;;5053716;28;20474;-59
2022/03/06 07:28:20;;;;;;;5.37;3.63;;;;;;;;;;5053822;28;20431;-58
2022/03/06 07:30:48;;;;;;;5.97;3.67;;;;;;;;;;5053984;28;20568;-58
2022/03/06 07:33:14;;;;;;;4.77;3.67;;;;;;;;;;5054157;28;20204;-59
2022/03/06 07:35:40;;;;;;;5.67;3.60;;;;;;;;;;5054126;28;21021;-57
2022/03/06 07:38:06;;;;;;;5.03;3.77;;;;;;;;;;5053850;28;20196;-58
2022/03/06 07:40:32;;;;;;;5.97;4.03;;;;;;;;;;5053883;28;20437;-57
2022/03/06 07:42:58;;;;;;;5.23;3.57;;;;;;;;;;5053965;28;20489;-58
2022/03/06 07:45:24;;;;;;;5.20;3.83;;;;;;;;;;5053289;28;20482;-57
2022/03/06 07:47:51;;;;;;;4.83;3.40;;;;;;;;;;5053228;28;20203;-57
2022/03/06 07:50:18;;;;;;;3.83;3.43;;;;;;;;;;5053416;28;20450;-57
2022/03/06 07:52:44;;;;;;;4.60;3.87;;;;;;;;;;5053893;28;20431;-57
2022/03/06 07:55:10;;;;;;;5.17;3.90;;;;;;;;;;5053460;28;20465;-58
2022/03/06 07:57:36;;;;;;;5.23;3.60;;;;;;;;;;5053433;28;20885;-57
2022/03/06 08:00:03;;;;;;;3.53;3.20;;;;;;;;;;5053636;28;20538;-57
2022/03/06 08:02:29;;;;;;;4.73;3.77;;;;;;;;;;5053610;28;20196;-58
2022/03/06 08:04:56;;;;;;;4.27;3.37;;;;;;;;;;5053194;28;20473;-58
2022/03/06 08:07:22;;;;;;;3.90;3.50;;;;;;;;;;5053250;28;20936;-57
2022/03/06 08:09:48;;;;;;;6.07;3.03;;;;;;;;;;5053189;28;20435;-58
2022/03/06 08:12:14;;;;;;;5.03;3.07;;;;;;;;;;5053182;28;20266;-55
2022/03/06 08:14:40;;;;;;;4.43;3.37;;;;;;;;;;5053228;28;20196;-57
2022/03/06 08:17:06;;;;;;;4.50;3.23;;;;;;;;;;5053240;28;20222;-56
2022/03/06 08:19:32;;;;;;;3.67;3.30;;;;;;;;;;5052224;28;20959;-55
2022/03/06 08:22:00;;;;;;;4.37;3.20;;;;;;;;;;5053198;28;20470;-54
2022/03/06 08:24:26;;;;;;;3.30;3.00;;;;;;;;;;5052696;28;20307;-55
2022/03/06 08:26:52;;;;;;;4.67;3.13;;;;;;;;;;5052852;28;20912;-54
2022/03/06 08:29:18;;;;;;;4.57;3.40;;;;;;;;;;5052617;28;20442;-55
2022/03/06 08:31:44;;;;;;;3.50;3.00;;;;;;;;;;5053183;28;20442;-53
2022/03/06 08:34:10;;;;;;;4.13;3.07;;;;;;;;;;5053033;28;20216;-54
2022/03/06 08:36:37;;;;;;;3.87;3.07;;;;;;;;;;5052619;28;20200;-54
2022/03/06 08:39:05;;;;;;;4.73;3.60;;;;;;;;;;5052547;28;20477;-54
2022/03/06 08:41:31;;;;;;;4.03;3.63;;;;;;;;;;5052790;28;20447;-55
2022/03/06 08:43:57;;;;;;;3.67;3.10;;;;;;;;;;5050408;28;20920;-55
2022/03/06 08:46:23;;;;;;;4.30;3.23;;;;;;;;;;5049821;28;20482;-55
2022/03/06 08:48:49;;;;;;;4.63;3.70;;;;;;;;;;5050739;28;20445;-55
2022/03/06 08:51:15;;;;;;;11.13;8.87;;;;;;;;;;5051231;28;20522;-55
2022/03/06 08:53:41;;;;;;;6.13;3.30;;;;;;;;;;5052022;28;20246;-55
2022/03/06 08:56:09;;;;;;;3.30;3.00;;;;;;;;;;5051836;28;20435;-55
2022/03/06 08:58:35;;;;;;;3.23;2.93;;;;;;;;;;5050869;28;20435;-55
2022/03/06 09:01:01;;;;;;;3.37;2.60;;;;;;;;;;5052344;28;20452;-57
2022/03/06 09:03:27;;;;;;;2.70;2.50;;;;;;;;;;5051628;28;20430;-54
2022/03/06 09:05:53;;;;;;;3.10;2.73;;;;;;;;;;5052068;28;20478;-54
2022/03/06 09:08:19;;;;;;;3.60;3.10;;;;;;;;;;5051993;28;20670;-54
2022/03/06 09:10:45;;;;;;;6.53;3.30;;;;;;;;;;5052246;28;20200;-56
2022/03/06 09:13:12;;;;;;;3.97;3.10;;;;;;;;;;5052005;28;20200;-58
2022/03/06 09:15:38;;;;;;;3.73;2.53;;;;;;;;;;5052221;28;20199;-59
2022/03/06 09:18:04;;;;;;;4.17;2.90;;;;;;;;;;5051867;28;20510;-59
2022/03/06 09:20:30;;;;;;;4.37;3.07;;;;;;;;;;5052003;28;20803;-53
2022/03/06 09:22:57;;;;;;;3.00;2.70;;;;;;;;;;5051827;28;20530;-56
2022/03/06 09:25:23;;;;;;;11.50;9.20;;;;;;;;;;5051455;28;20433;-55
2022/03/06 09:27:49;;;;;;;3.17;2.73;;;;;;;;;;5051846;28;20446;-56
2022/03/06 09:30:16;;;;;;;4.70;2.53;;;;;;;;;;5051815;28;20435;-56
2022/03/06 09:32:42;;;;;;;3.10;2.43;;;;;;;;;;5051781;28;20509;-56
2022/03/06 09:35:10;;;;;;;3.53;2.93;;;;;;;;;;5051216;28;20447;-55
2022/03/06 09:37:36;;;;;;;3.77;2.50;;;;;;;;;;5051545;28;20708;-55
2022/03/06 09:40:02;;;;;;;4.77;2.50;;;;;;;;;;5051587;28;20447;-57
2022/03/06 09:42:28;;;;;;;4.17;2.70;;;;;;;;;;5051482;28;20968;-55
2022/03/06 09:44:54;;;;;;;4.50;2.77;;;;;;;;;;5051378;28;20439;-54
2022/03/06 09:47:23;;;;;;;5.37;3.10;;;;;;;;;;5051390;28;20446;-55
2022/03/06 09:49:49;;;;;;;6.97;2.87;;;;;;;;;;5051544;28;20934;-57
2022/03/06 09:52:15;;;;;;;4.30;3.23;;;;;;;;;;5051555;28;20442;-55
2022/03/06 09:54:41;;;;;;;8.93;7.30;;;;;;;;;;5050368;28;20877;-58
2022/03/06 09:57:07;;;;;;;2.90;2.60;;;;;;;;;;5051165;28;20937;-55
2022/03/06 09:59:34;;;;;;;3.80;2.80;;;;;;;;;;5051662;28;20463;-54
2022/03/06 10:02:01;;;;;;;4.17;2.60;;;;;;;;;;5051813;28;20441;-55
2022/03/06 10:04:30;;;;;;;4.13;2.90;;;;;;;;;;5051297;28;20451;-55
2022/03/06 10:06:59;;;;;;;4.93;3.10;;;;;;;;;;5051448;28;20541;-55
2022/03/06 10:09:26;;;;;;;5.07;3.03;;;;;;;;;;5051665;28;20466;-56
2022/03/06 10:11:54;;;;;;;4.63;2.80;;;;;;;;;;5054882;28;20509;-56
2022/03/06 10:14:33;;;;;;;4.83;2.97;;;;;;;;;;5054446;28;20958;-57
2022/03/06 10:17:08;;;;;;;3.13;2.70;;;;;;;;;;5055898;28;20529;-56
2022/03/06 10:19:48;;;;;;;3.67;2.70;;;;;;;;;;5055165;28;20440;-56
2022/03/06 10:22:14;;;;;;;3.93;3.30;;;;;;;;;;5055523;28;20442;-57
2022/03/06 10:24:45;;;;;;;5.50;3.57;;;;;;;;;;5054909;28;20461;-57
2022/03/06 10:27:11;;;;;;;4.93;3.23;;;;;;;;;;5054943;28;20482;-58
2022/03/06 10:29:37;;;;;;;5.20;3.37;;;;;;;;;;5055447;28;20466;-57
2022/03/06 10:32:07;;;;;;;4.77;3.33;;;;;;;;;;5055439;28;20215;-56
2022/03/06 10:34:36;;;;;;;4.37;3.40;;;;;;;;;;5054994;28;20208;-56
2022/03/06 10:37:03;;;;;;;6.50;5.83;;;;;;;;;;5055423;28;20538;-57
2022/03/06 10:39:30;;;;;;;4.63;3.40;;;;;;;;;;5054961;28;20967;-56
2022/03/06 10:41:57;;;;;;;4.97;3.67;;;;;;;;;;5055135;28;20438;-56
2022/03/06 10:44:42;;;;;;;4.23;3.10;;;;;;;;;;5054842;28;20579;-57
2022/03/06 10:47:08;;;;;;;5.13;3.30;;;;;;;;;;5054726;28;20223;-56
2022/03/06 10:49:34;;;;;;;5.43;3.60;;;;;;;;;;5054442;28;20188;-57
2022/03/06 10:52:14;;;;;;;4.17;3.23;;;;;;;;;;5046323;28;20200;-57
2022/03/06 10:54:48;;;;;;;5.37;3.30;;;;;;;;;;5048571;28;20207;-57
2022/03/06 10:57:14;;;;;;;5.33;3.53;;;;;;;;;;5054133;28;20196;-57
2022/03/06 10:59:42;;;;;;;4.50;3.40;;;;;;;;;;5054430;28;20433;-56
2022/03/06 11:02:08;;;;;;;3.63;3.30;;;;;;;;;;5054939;28;20518;-56
2022/03/06 11:04:35;;;;;;;4.17;3.13;;;;;;;;;;5052452;28;20227;-56
2022/03/06 11:07:01;;;;;;;5.60;3.47;;;;;;;;;;5054561;28;20224;-56
2022/03/06 11:09:28;;;;;;;4.33;3.50;;;;;;;;;;5054394;28;20559;-56
2022/03/06 11:11:55;;;;;;;5.40;3.70;;;;;;;;;;5054356;28;20257;-57
2022/03/06 11:14:21;;;;;;;4.47;3.70;;;;;;;;;;5054480;28;20422;-57
2022/03/06 11:16:48;;;;;;;4.27;3.70;;;;;;;;;;5054499;28;20216;-57
2022/03/06 11:19:14;;;;;;;4.10;3.60;;;;;;;;;;5054379;28;20222;-57
2022/03/06 11:21:40;;;;;;;6.80;4.00;;;;;;;;;;5053588;28;20742;-57
2022/03/06 11:24:09;;;;;;;3.97;3.57;;;;;;;;;;5053697;28;20459;-57
2022/03/06 11:26:58;;;;;;;6.77;4.17;;;;;;;;;;5053904;28;20236;-57
2022/03/06 11:29:45;;;;;;;4.23;3.77;;;;;;;;;;5038456;28;20549;-57
2022/03/06 11:32:12;;;;;;;3.93;3.53;;;;;;;;;;5028539;28;20208;-57
2022/03/06 11:34:40;;;;;;;5.50;4.73;;;;;;;;;;5054092;28;20224;-57
2022/03/06 11:37:11;;;;;;;5.27;4.50;;;;;;;;;;5053758;28;20246;-57
2022/03/06 11:39:44;;;;;;;4.73;4.30;;;;;;;;;;5051592;28;20567;-57
2022/03/06 11:42:10;;;;;;;4.70;4.10;;;;;;;;;;5051700;28;20266;-56
2022/03/06 11:44:39;;;;;;;6.73;4.30;;;;;;;;;;5053414;28;20254;-57
2022/03/06 11:47:13;;;;;;;6.00;4.43;;;;;;;;;;5053467;28;20314;-57
2022/03/06 11:49:39;;;;;;;4.90;4.03;;;;;;;;;;5053657;28;20204;-57
2022/03/06 11:52:24;;;;;;;5.37;4.60;;;;;;;;;;5053074;28;20194;-56
2022/03/06 11:54:50;;;;;;;5.97;5.20;;;;;;;;;;5051661;28;20547;-57
2022/03/06 11:57:34;;;;;;;6.17;4.73;;;;;;;;;;5053242;28;20199;-56
2022/03/06 12:00:14;;;;;;;4.90;4.37;;;;;;;;;;5053276;28;20214;-57
2022/03/06 12:02:46;;;;;;;4.67;4.27;;;;;;;;;;5052933;28;20466;-56
2022/03/06 12:05:12;;;;;;;5.50;4.57;;;;;;;;;;5052849;28;20447;-56
2022/03/06 12:07:40;;;;;;;5.57;4.67;;;;;;;;;;5053174;28;20439;-57
2022/03/06 12:10:09;;;;;;;5.57;4.70;;;;;;;;;;5053267;28;20218;-57
2022/03/06 12:12:35;;;;;;;5.67;4.77;;;;;;;;;;5053212;28;20252;-57
2022/03/06 12:15:11;;;;;;;5.53;4.97;;;;;;;;;;5053317;28;20606;-57
2022/03/06 12:17:38;;;;;;;6.13;4.97;;;;;;;;;;5053196;28;20199;-57
2022/03/06 12:20:22;;;;;;;5.00;4.13;;;;;;;;;;5053189;28;20438;-58
2022/03/06 12:22:49;;;;;;;4.80;4.40;;;;;;;;;;5053151;28;20279;-57
2022/03/06 12:25:25;;;;;;;4.83;4.13;;;;;;;;;;5053029;28;20200;-57
2022/03/06 12:28:10;;;;;;;6.30;4.37;;;;;;;;;;5053092;28;20223;-57
2022/03/06 12:30:39;;;;;;;5.17;4.53;;;;;;;;;;5052838;28;20204;-59
2022/03/06 12:33:20;;;;;;;4.40;4.00;;;;;;;;;;5051891;28;20193;-56
2022/03/06 12:35:47;;;;;;;5.20;4.70;;;;;;;;;;5052893;28;20287;-57
2022/03/06 12:38:22;;;;;;;4.80;4.40;;;;;;;;;;5052828;28;20208;-57
2022/03/06 12:40:48;;;;;;;4.53;4.13;;;;;;;;;;5052761;28;20204;-57
2022/03/06 12:43:19;;;;;;;4.40;4.00;;;;;;;;;;5052573;28;20198;-57
2022/03/06 12:45:46;;;;;;;4.63;4.20;;;;;;;;;;5052737;28;20220;-57
2022/03/06 12:48:12;;;;;;;4.87;4.37;;;;;;;;;;5052518;28;20568;-56
2022/03/06 12:50:41;;;;;;;5.50;4.53;;;;;;;;;;5052606;28;20208;-55
2022/03/06 12:53:09;;;;;;;4.40;4.00;;;;;;;;;;5052560;28;20275;-57
2022/03/06 12:55:35;;;;;;;3.80;3.50;;;;;;;;;;5052483;28;20212;-57
2022/03/06 12:58:01;;;;;;;4.80;3.80;;;;;;;;;;5050906;28;20585;-60
2022/03/06 13:00:28;;;;;;;4.07;3.47;;;;;;;;;;5052255;28;20294;-57
2022/03/06 13:02:55;;;;;;;4.37;3.37;;;;;;;;;;5052221;28;20651;-57
2022/03/06 13:05:23;;;;;;;4.70;2.93;;;;;;;;;;5052211;28;20295;-57
2022/03/06 13:07:49;;;;;;;3.83;3.10;;;;;;;;;;5052144;28;20673;-57
2022/03/06 13:10:18;;;;;;;3.40;3.00;;;;;;;;;;5050609;28;20283;-57
2022/03/06 13:12:45;;;;;;;3.53;2.90;;;;;;;;;;5052316;28;20720;-56
2022/03/06 13:15:17;;;;;;;3.70;2.97;;;;;;;;;;5051966;28;20203;-57
2022/03/06 13:17:44;;;;;;;3.60;3.23;;;;;;;;;;5052046;28;20203;-57
2022/03/06 13:20:11;;;;;;;4.27;3.10;;;;;;;;;;5051977;28;20200;-56
2022/03/06 13:22:37;;;;;;;3.50;3.20;;;;;;;;;;5051699;28;20282;-56
2022/03/06 13:25:03;;;;;;;3.53;3.23;;;;;;;;;;5051933;28;20220;-57
2022/03/06 13:27:32;;;;;;;4.10;3.70;;;;;;;;;;5051476;28;20240;-57
2022/03/06 13:30:02;;;;;;;5.00;3.60;;;;;;;;;;5051971;28;20580;-56
2022/03/06 13:32:28;;;;;;;5.30;3.50;;;;;;;;;;5051864;28;20216;-56
2022/03/06 13:34:54;;;;;;;3.40;3.10;;;;;;;;;;5051775;28;20200;-57
2022/03/06 13:37:30;;;;;;;3.70;3.27;;;;;;;;;;5051473;28;20191;-58
2022/03/06 13:39:56;;;;;;;6.57;4.17;;;;;;;;;;5051849;28;20203;-56
2022/03/06 13:42:30;;;;;;;5.13;4.00;;;;;;;;;;5051403;28;20241;-56
2022/03/06 13:44:57;;;;;;;3.30;3.00;;;;;;;;;;5051654;28;20212;-56
2022/03/06 13:47:24;;;;;;;3.90;3.00;;;;;;;;;;5051521;28;20231;-57
2022/03/06 13:49:58;;;;;;;5.53;3.07;;;;;;;;;;5051544;28;20666;-57
2022/03/06 13:52:31;;;;;;;3.50;3.20;;;;;;;;;;5051394;28;20214;-57
2022/03/06 13:55:02;;;;;;;3.67;3.37;;;;;;;;;;5051656;28;20230;-57
2022/03/06 13:57:28;;;;;;;3.87;3.23;;;;;;;;;;5051515;28;20196;-58
2022/03/06 13:59:55;;;;;;;3.10;2.87;;;;;;;;;;5051500;28;20287;-57
2022/03/06 14:02:26;;;;;;;3.70;3.03;;;;;;;;;;5051141;28;20200;-57
2022/03/06 14:04:52;;;;;;;3.93;3.10;;;;;;;;;;5051410;28;20192;-56
2022/03/06 14:07:24;;;;;;;3.57;3.27;;;;;;;;;;5049167;28;20230;-58
2022/03/06 14:09:50;;;;;;;3.07;2.77;;;;;;;;;;5051048;28;20403;-57
2022/03/06 14:12:16;;;;;;;3.50;2.93;;;;;;;;;;5051181;28;20207;-57
2022/03/06 14:14:43;;;;;;;3.73;3.23;;;;;;;;;;5051106;28;20291;-56
2022/03/06 14:17:12;;;;;;;3.47;3.03;;;;;;;;;;5051097;28;20620;-57
2022/03/06 14:19:38;;;;;;;3.40;3.10;;;;;;;;;;5050809;28;20694;-57
2022/03/06 14:22:05;;;;;;;3.97;3.57;;;;;;;;;;5050626;28;20206;-56
2022/03/06 14:24:31;;;;;;;3.83;2.90;;;;;;;;;;5050801;28;20744;-57
2022/03/06 14:26:57;;;;;;;3.77;3.20;;;;;;;;;;5050687;28;20279;-57
2022/03/06 14:29:26;;;;;;;3.53;3.17;;;;;;;;;;5050638;28;20219;-57
2022/03/06 14:31:53;;;;;;;3.60;3.00;;;;;;;;;;5050710;28;20200;-57
2022/03/06 14:34:21;;;;;;;3.90;3.47;;;;;;;;;;5050502;28;20234;-58
2022/03/06 14:36:47;;;;;;;3.40;3.00;;;;;;;;;;5050598;28;20564;-57
2022/03/06 14:39:13;;;;;;;4.23;3.20;;;;;;;;;;5050615;28;20207;-57
2022/03/06 14:41:40;;;;;;;3.57;3.27;;;;;;;;;;5050751;28;20203;-57
2022/03/06 14:44:07;;;;;;;3.10;2.80;;;;;;;;;;5050586;28;20406;-58